createdAt,value
2023-05-26T00:00:03.970Z,98452.00
2023-05-26T00:00:13.978Z,98452.00
2023-05-26T00:00:23.966Z,98452.00
2023-05-26T00:00:34.000Z,98454.00
2023-05-26T00:00:44.020Z,98452.00
2023-05-26T00:00:54.023Z,98454.00
2023-05-26T00:01:04.029Z,98454.00
2023-05-26T00:01:14.043Z,98454.00
2023-05-26T00:01:24.161Z,98454.00
2023-05-26T00:01:34.157Z,98452.00
2023-05-26T00:01:44.173Z,98452.00
2023-05-26T00:01:54.197Z,98450.00
2023-05-26T00:02:04.209Z,98452.00
2023-05-26T00:02:14.522Z,98454.00
2023-05-26T00:02:24.607Z,98450.00
2023-05-26T00:02:34.731Z,98452.00
2023-05-26T00:02:44.688Z,98452.00
2023-05-26T00:02:54.717Z,98452.00
2023-05-26T00:03:04.881Z,98452.00
2023-05-26T00:03:14.854Z,98452.00
2023-05-26T00:03:24.952Z,98452.00
2023-05-26T00:03:34.980Z,98452.00
2023-05-26T00:03:45.108Z,98452.00
2023-05-26T00:03:55.393Z,98454.00
2023-05-26T00:04:05.444Z,98452.00
2023-05-26T00:04:15.538Z,98454.00
2023-05-26T00:04:25.769Z,98452.00
2023-05-26T00:04:35.845Z,98452.00
2023-05-26T00:04:45.793Z,98452.00
2023-05-26T00:04:55.808Z,98452.00
2023-05-26T00:05:05.830Z,98450.00
2023-05-26T00:05:15.810Z,98452.00
2023-05-26T00:05:25.933Z,98452.00
2023-05-26T00:05:35.937Z,98450.00
2023-05-26T00:05:46.301Z,98454.00
2023-05-26T00:05:55.989Z,98450.00
2023-05-26T00:06:06.262Z,98450.00
2023-05-26T00:06:16.288Z,98452.00
2023-05-26T00:06:26.297Z,98450.00
2023-05-26T00:06:36.306Z,98450.00
2023-05-26T00:06:46.322Z,98452.00
2023-05-26T00:06:56.350Z,98452.00
2023-05-26T00:07:06.339Z,98452.00
2023-05-26T00:07:16.357Z,98452.00
2023-05-26T00:07:26.360Z,98452.00
2023-05-26T00:07:36.394Z,98452.00
2023-05-26T00:07:46.383Z,98452.00
2023-05-26T00:07:56.392Z,98454.00
2023-05-26T00:08:06.439Z,98452.00
2023-05-26T00:08:16.446Z,98454.00
2023-05-26T00:08:26.463Z,98452.00
2023-05-26T00:08:36.483Z,98452.00
2023-05-26T00:08:46.542Z,98452.00
2023-05-26T00:08:56.567Z,98456.00
2023-05-26T00:09:06.667Z,98452.00
2023-05-26T00:09:16.771Z,98456.00
2023-05-26T00:09:26.819Z,98452.00
2023-05-26T00:09:36.884Z,98454.00
2023-05-26T00:09:46.909Z,98454.00
2023-05-26T00:09:56.945Z,98454.00
2023-05-26T00:10:07.215Z,98454.00
2023-05-26T00:10:17.203Z,98454.00
2023-05-26T00:10:27.218Z,98454.00
2023-05-26T00:10:37.248Z,98456.00
2023-05-26T00:10:47.303Z,98454.00
2023-05-26T00:10:57.310Z,98454.00
2023-05-26T00:11:07.380Z,98456.00
2023-05-26T00:11:17.374Z,98456.00
2023-05-26T00:11:27.499Z,98456.00
2023-05-26T00:11:37.530Z,98456.00
2023-05-26T00:11:47.821Z,98454.00
2023-05-26T00:11:57.990Z,98456.00
2023-05-26T00:12:08.012Z,98456.00
2023-05-26T00:12:18.259Z,98454.00
2023-05-26T00:12:28.257Z,98454.00
2023-05-26T00:12:38.277Z,98456.00
2023-05-26T00:12:48.287Z,98454.00
2023-05-26T00:12:58.298Z,98456.00
2023-05-26T00:13:08.304Z,98454.00
2023-05-26T00:13:18.422Z,98456.00
2023-05-26T00:13:28.431Z,98456.00
2023-05-26T00:13:38.442Z,98456.00
2023-05-26T00:13:48.439Z,98454.00
2023-05-26T00:13:58.445Z,98454.00
2023-05-26T00:14:08.457Z,98454.00
2023-05-26T00:14:18.471Z,98454.00
2023-05-26T00:14:28.482Z,98454.00
2023-05-26T00:14:38.488Z,98452.00
2023-05-26T00:14:48.493Z,98452.00
2023-05-26T00:14:58.509Z,98452.00
2023-05-26T00:15:08.544Z,98452.00
2023-05-26T00:15:18.532Z,98452.00
2023-05-26T00:15:28.548Z,98452.00
2023-05-26T00:15:38.576Z,98450.00
2023-05-26T00:15:48.994Z,98452.00
2023-05-26T00:15:58.651Z,98452.00
2023-05-26T00:16:08.745Z,98452.00
2023-05-26T00:16:19.133Z,98452.00
2023-05-26T00:16:29.092Z,98452.00
2023-05-26T00:16:39.164Z,98452.00
2023-05-26T00:16:49.206Z,98450.00
2023-05-26T00:16:59.232Z,98450.00
2023-05-26T00:17:09.366Z,98452.00
2023-05-26T00:17:19.389Z,98452.00
2023-05-26T00:17:29.385Z,98450.00
2023-05-26T00:17:39.442Z,98450.00
2023-05-26T00:17:49.510Z,98450.00
2023-05-26T00:17:59.789Z,98452.00
2023-05-26T00:18:09.826Z,98450.00
2023-05-26T00:18:19.863Z,98450.00
2023-05-26T00:18:29.890Z,98450.00
2023-05-26T00:18:39.886Z,98450.00
2023-05-26T00:18:49.903Z,98450.00
2023-05-26T00:18:59.966Z,98452.00
2023-05-26T00:19:09.997Z,98450.00
2023-05-26T00:19:20.011Z,98452.00
2023-05-26T00:19:30.059Z,98452.00
2023-05-26T00:19:40.079Z,98452.00
2023-05-26T00:19:50.165Z,98452.00
2023-05-26T00:20:00.312Z,98450.00
2023-05-26T00:20:10.233Z,98452.00
2023-05-26T00:20:20.323Z,98450.00
2023-05-26T00:20:30.441Z,98452.00
2023-05-26T00:20:40.465Z,98452.00
2023-05-26T00:20:50.399Z,98456.00
2023-05-26T00:21:00.410Z,98452.00
2023-05-26T00:21:10.415Z,98450.00
2023-05-26T00:21:20.417Z,98450.00
2023-05-26T00:21:30.454Z,98452.00
2023-05-26T00:21:40.466Z,98454.00
2023-05-26T00:21:50.645Z,98454.00
2023-05-26T00:22:00.936Z,98456.00
2023-05-26T00:22:11.068Z,98454.00
2023-05-26T00:22:21.089Z,98454.00
2023-05-26T00:22:31.331Z,98456.00
2023-05-26T00:22:41.358Z,98454.00
2023-05-26T00:22:51.348Z,98454.00
2023-05-26T00:23:01.420Z,98456.00
2023-05-26T00:23:11.434Z,98456.00
2023-05-26T00:23:21.552Z,98456.00
2023-05-26T00:23:31.568Z,98454.00
2023-05-26T00:23:41.582Z,98454.00
2023-05-26T00:23:51.618Z,98454.00
2023-05-26T00:24:01.623Z,98454.00
2023-05-26T00:24:11.920Z,98454.00
2023-05-26T00:24:22.151Z,98456.00
2023-05-26T00:24:32.016Z,98454.00
2023-05-26T00:24:42.012Z,98456.00
2023-05-26T00:24:52.012Z,98456.00
2023-05-26T00:25:02.021Z,98456.00
2023-05-26T00:25:12.034Z,98456.00
2023-05-26T00:25:32.055Z,98454.00
2023-05-26T00:25:42.096Z,98454.00
2023-05-26T00:25:52.097Z,98452.00
2023-05-26T00:26:02.231Z,98454.00
2023-05-26T00:26:12.254Z,98456.00
2023-05-26T00:26:22.287Z,98452.00
2023-05-26T00:26:32.374Z,98450.00
2023-05-26T00:26:42.380Z,98452.00
2023-05-26T00:26:52.415Z,98452.00
2023-05-26T00:27:02.738Z,98454.00
2023-05-26T00:27:12.754Z,98452.00
2023-05-26T00:27:22.821Z,98454.00
2023-05-26T00:27:32.829Z,98452.00
2023-05-26T00:27:42.861Z,98454.00
2023-05-26T00:27:52.900Z,98454.00
2023-05-26T00:28:03.051Z,98450.00
2023-05-26T00:28:13.108Z,98452.00
2023-05-26T00:28:23.024Z,98452.00
2023-05-26T00:28:33.068Z,98450.00
2023-05-26T00:28:43.088Z,98450.00
2023-05-26T00:28:53.151Z,98454.00
2023-05-26T00:29:03.153Z,98450.00
2023-05-26T00:29:25.605Z,98454.00
2023-05-26T00:29:29.820Z,98452.00
2023-05-26T00:29:33.360Z,98454.00
2023-05-26T00:29:43.277Z,98452.00
2023-05-26T00:29:53.352Z,98454.00
2023-05-26T00:30:03.480Z,98454.00
2023-05-26T00:30:13.404Z,98452.00
2023-05-26T00:30:23.607Z,98454.00
2023-05-26T00:30:33.676Z,98450.00
2023-05-26T00:30:43.675Z,98452.00
2023-05-26T00:30:53.733Z,98452.00
2023-05-26T00:31:03.801Z,98454.00
2023-05-26T00:31:13.846Z,98450.00
2023-05-26T00:31:23.888Z,98454.00
2023-05-26T00:31:33.962Z,98452.00
2023-05-26T00:31:44.016Z,98452.00
2023-05-26T00:31:54.087Z,98452.00
2023-05-26T00:32:04.097Z,98450.00
2023-05-26T00:32:14.108Z,98450.00
2023-05-26T00:32:24.136Z,98450.00
2023-05-26T00:32:34.260Z,98452.00
2023-05-26T00:32:44.205Z,98452.00
2023-05-26T00:32:54.265Z,98452.00
2023-05-26T00:33:04.324Z,98446.00
2023-05-26T00:33:14.339Z,98450.00
2023-05-26T00:33:24.461Z,98448.00
2023-05-26T00:33:34.478Z,98448.00
2023-05-26T00:33:44.478Z,98448.00
2023-05-26T00:33:54.482Z,98446.00
2023-05-26T00:34:04.491Z,98450.00
2023-05-26T00:34:14.494Z,98450.00
2023-05-26T00:34:24.780Z,98448.00
2023-05-26T00:34:34.780Z,98450.00
2023-05-26T00:34:44.808Z,98450.00
2023-05-26T00:34:54.828Z,98446.00
2023-05-26T00:35:04.971Z,98450.00
2023-05-26T00:35:14.975Z,98452.00
2023-05-26T00:35:24.985Z,98450.00
2023-05-26T00:35:34.988Z,98448.00
2023-05-26T00:35:45.253Z,98448.00
2023-05-26T00:35:55.060Z,98448.00
2023-05-26T00:36:05.329Z,98450.00
2023-05-26T00:36:15.335Z,98452.00
2023-05-26T00:36:25.370Z,98448.00
2023-05-26T00:36:35.395Z,98448.00
2023-05-26T00:36:45.464Z,98448.00
2023-05-26T00:36:55.461Z,98450.00
2023-05-26T00:37:05.587Z,98448.00
2023-05-26T00:37:15.598Z,98448.00
2023-05-26T00:37:25.646Z,98446.00
2023-05-26T00:37:35.619Z,98448.00
2023-05-26T00:37:45.910Z,98448.00
2023-05-26T00:37:55.908Z,98448.00
2023-05-26T00:38:05.938Z,98446.00
2023-05-26T00:38:16.025Z,98446.00
2023-05-26T00:38:26.027Z,98446.00
2023-05-26T00:38:36.031Z,98444.00
2023-05-26T00:38:46.049Z,98444.00
2023-05-26T00:38:56.102Z,98446.00
2023-05-26T00:39:06.152Z,98446.00
2023-05-26T00:39:16.160Z,98444.00
2023-05-26T00:39:26.554Z,98446.00
2023-05-26T00:39:36.545Z,98444.00
2023-05-26T00:39:46.553Z,98442.00
2023-05-26T00:39:56.551Z,98446.00
2023-05-26T00:40:06.562Z,98442.00
2023-05-26T00:40:16.576Z,98444.00
2023-05-26T00:40:26.578Z,98442.00
2023-05-26T00:40:36.593Z,98442.00
2023-05-26T00:40:46.597Z,98442.00
2023-05-26T00:40:56.609Z,98442.00
2023-05-26T00:41:06.612Z,98442.00
2023-05-26T00:41:16.640Z,98439.00
2023-05-26T00:41:26.773Z,98440.00
2023-05-26T00:41:36.785Z,98444.00
2023-05-26T00:41:46.808Z,98444.00
2023-05-26T00:41:56.811Z,98442.00
2023-05-26T00:42:06.819Z,98444.00
2023-05-26T00:42:17.074Z,98446.00
2023-05-26T00:42:27.211Z,98444.00
2023-05-26T00:42:37.216Z,98446.00
2023-05-26T00:42:47.475Z,98442.00
2023-05-26T00:42:57.479Z,98442.00
2023-05-26T00:43:07.544Z,98444.00
2023-05-26T00:43:17.572Z,98442.00
2023-05-26T00:43:27.692Z,98444.00
2023-05-26T00:43:37.712Z,98442.00
2023-05-26T00:43:47.707Z,98442.00
2023-05-26T00:43:57.717Z,98444.00
2023-05-26T00:44:07.836Z,98442.00
2023-05-26T00:44:17.852Z,98442.00
2023-05-26T00:44:27.981Z,98444.00
2023-05-26T00:44:37.985Z,98442.00
2023-05-26T00:44:48.103Z,98446.00
2023-05-26T00:44:58.357Z,98442.00
2023-05-26T00:45:08.483Z,98446.00
2023-05-26T00:45:18.628Z,98442.00
2023-05-26T00:45:28.758Z,98442.00
2023-05-26T00:45:38.767Z,98442.00
2023-05-26T00:45:48.911Z,98444.00
2023-05-26T00:45:59.164Z,98444.00
2023-05-26T00:46:09.285Z,98444.00
2023-05-26T00:46:19.293Z,98444.00
2023-05-26T00:46:29.595Z,98446.00
2023-05-26T00:46:39.647Z,98446.00
2023-05-26T00:46:49.703Z,98446.00
2023-05-26T00:46:59.717Z,98446.00
2023-05-26T00:47:09.785Z,98446.00
2023-05-26T00:47:19.897Z,98444.00
2023-05-26T00:47:29.863Z,98444.00
2023-05-26T00:47:39.888Z,98444.00
2023-05-26T00:47:49.914Z,98444.00
2023-05-26T00:47:59.981Z,98446.00
2023-05-26T00:48:10.027Z,98446.00
2023-05-26T00:48:20.079Z,98446.00
2023-05-26T00:48:30.211Z,98444.00
2023-05-26T00:48:40.192Z,98446.00
2023-05-26T00:48:50.213Z,98446.00
2023-05-26T00:49:00.208Z,98446.00
2023-05-26T00:49:10.334Z,98446.00
2023-05-26T00:49:20.477Z,98446.00
2023-05-26T00:49:30.482Z,98444.00
2023-05-26T00:49:40.476Z,98442.00
2023-05-26T00:49:50.487Z,98442.00
2023-05-26T00:50:00.516Z,98442.00
2023-05-26T00:50:10.515Z,98444.00
2023-05-26T00:50:20.523Z,98446.00
2023-05-26T00:50:30.647Z,98444.00
2023-05-26T00:50:40.647Z,98446.00
2023-05-26T00:50:50.764Z,98442.00
2023-05-26T00:51:00.901Z,98442.00
2023-05-26T00:51:10.901Z,98444.00
2023-05-26T00:51:20.913Z,98446.00
2023-05-26T00:51:30.939Z,98439.00
2023-05-26T00:51:40.928Z,98440.00
2023-05-26T00:51:50.965Z,98440.00
2023-05-26T00:52:00.952Z,98440.00
2023-05-26T00:52:10.971Z,98442.00
2023-05-26T00:52:20.981Z,98439.00
2023-05-26T00:52:31.015Z,98442.00
2023-05-26T00:52:41.025Z,98440.00
2023-05-26T00:52:51.032Z,98442.00
2023-05-26T00:53:01.043Z,98442.00
2023-05-26T00:53:11.056Z,98444.00
2023-05-26T00:53:21.080Z,98444.00
2023-05-26T00:53:31.119Z,98440.00
2023-05-26T00:53:41.107Z,98440.00
2023-05-26T00:53:51.492Z,98442.00
2023-05-26T00:54:01.533Z,98440.00
2023-05-26T00:54:11.512Z,98440.00
2023-05-26T00:54:21.546Z,98442.00
2023-05-26T00:54:31.712Z,98440.00
2023-05-26T00:54:41.701Z,98440.00
2023-05-26T00:54:51.846Z,98440.00
2023-05-26T00:55:01.852Z,98437.00
2023-05-26T00:55:11.864Z,98439.00
2023-05-26T00:55:21.858Z,98439.00
2023-05-26T00:55:31.996Z,98439.00
2023-05-26T00:55:42.012Z,98439.00
2023-05-26T00:55:52.018Z,98439.00
2023-05-26T00:56:02.022Z,98439.00
2023-05-26T00:56:12.035Z,98439.00
2023-05-26T00:56:22.047Z,98440.00
2023-05-26T00:56:32.066Z,98439.00
2023-05-26T00:56:42.068Z,98440.00
2023-05-26T00:56:52.083Z,98440.00
2023-05-26T00:57:02.087Z,98440.00
2023-05-26T00:57:12.098Z,98440.00
2023-05-26T00:57:22.115Z,98440.00
2023-05-26T00:57:32.137Z,98444.00
2023-05-26T00:57:42.146Z,98442.00
2023-05-26T00:57:52.149Z,98444.00
2023-05-26T00:58:02.146Z,98444.00
2023-05-26T00:58:12.262Z,98442.00
2023-05-26T00:58:22.519Z,98442.00
2023-05-26T00:58:32.534Z,98442.00
2023-05-26T00:58:42.545Z,98444.00
2023-05-26T00:58:52.612Z,98442.00
2023-05-26T00:59:02.635Z,98442.00
2023-05-26T00:59:12.764Z,98442.00
2023-05-26T00:59:22.757Z,98444.00
2023-05-26T00:59:32.810Z,98444.00
2023-05-26T00:59:42.806Z,98442.00
2023-05-26T00:59:52.821Z,98440.00
2023-05-26T01:00:03.100Z,98440.00
2023-05-26T01:00:13.090Z,98442.00
2023-05-26T01:00:23.100Z,98442.00
2023-05-26T01:00:33.130Z,98442.00
2023-05-26T01:00:43.181Z,98442.00
2023-05-26T01:00:53.249Z,98442.00
2023-05-26T01:01:03.353Z,98442.00
2023-05-26T01:01:13.433Z,98444.00
2023-05-26T01:01:23.606Z,98446.00
2023-05-26T01:01:33.734Z,98446.00
2023-05-26T01:01:43.855Z,98444.00
2023-05-26T01:01:53.919Z,98444.00
2023-05-26T01:02:03.943Z,98446.00
2023-05-26T01:02:13.952Z,98446.00
2023-05-26T01:02:23.994Z,98444.00
2023-05-26T01:02:34.105Z,98446.00
2023-05-26T01:02:44.176Z,98444.00
2023-05-26T01:02:54.200Z,98446.00
2023-05-26T01:03:04.259Z,98448.00
2023-05-26T01:03:14.350Z,98446.00
2023-05-26T01:03:24.664Z,98448.00
2023-05-26T01:03:34.704Z,98448.00
2023-05-26T01:03:44.774Z,98446.00
2023-05-26T01:03:55.200Z,98448.00
2023-05-26T01:04:05.249Z,98446.00
2023-05-26T01:04:15.257Z,98446.00
2023-05-26T01:04:25.274Z,98448.00
2023-05-26T01:04:35.274Z,98446.00
2023-05-26T01:04:45.294Z,98446.00
2023-05-26T01:04:55.306Z,98446.00
2023-05-26T01:05:05.344Z,98446.00
2023-05-26T01:05:15.361Z,98446.00
2023-05-26T01:05:25.390Z,98444.00
2023-05-26T01:05:35.391Z,98446.00
2023-05-26T01:05:45.559Z,98448.00
2023-05-26T01:05:55.404Z,98448.00
2023-05-26T01:06:05.527Z,98448.00
2023-05-26T01:06:15.534Z,98442.00
2023-05-26T01:06:25.672Z,98446.00
2023-05-26T01:06:35.657Z,98444.00
2023-05-26T01:06:45.806Z,98444.00
2023-05-26T01:06:55.803Z,98446.00
2023-05-26T01:07:05.805Z,98444.00
2023-05-26T01:07:15.815Z,98446.00
2023-05-26T01:07:25.811Z,98444.00
2023-05-26T01:07:35.814Z,98446.00
2023-05-26T01:07:45.829Z,98446.00
2023-05-26T01:07:55.860Z,98444.00
2023-05-26T01:08:05.876Z,98448.00
2023-05-26T01:08:15.898Z,98446.00
2023-05-26T01:08:25.930Z,98448.00
2023-05-26T01:08:35.931Z,98444.00
2023-05-26T01:08:46.071Z,98448.00
2023-05-26T01:08:56.073Z,98446.00
2023-05-26T01:09:06.088Z,98446.00
2023-05-26T01:09:16.106Z,98444.00
2023-05-26T01:09:26.105Z,98444.00
2023-05-26T01:09:36.393Z,98444.00
2023-05-26T01:09:46.369Z,98444.00
2023-05-26T01:09:56.377Z,98444.00
2023-05-26T01:10:06.400Z,98444.00
2023-05-26T01:10:16.484Z,98444.00
2023-05-26T01:10:26.608Z,98442.00
2023-05-26T01:10:36.603Z,98442.00
2023-05-26T01:10:46.734Z,98444.00
2023-05-26T01:10:56.751Z,98442.00
2023-05-26T01:11:06.750Z,98442.00
2023-05-26T01:11:16.905Z,98442.00
2023-05-26T01:11:27.022Z,98442.00
2023-05-26T01:11:37.038Z,98442.00
2023-05-26T01:11:47.289Z,98440.00
2023-05-26T01:11:57.288Z,98442.00
2023-05-26T01:12:07.433Z,98442.00
2023-05-26T01:12:17.702Z,98442.00
2023-05-26T01:12:27.730Z,98442.00
2023-05-26T01:12:37.713Z,98442.00
2023-05-26T01:12:48.092Z,98442.00
2023-05-26T01:12:58.200Z,98442.00
2023-05-26T01:13:08.130Z,98440.00
2023-05-26T01:13:18.126Z,98444.00
2023-05-26T01:13:28.261Z,98442.00
2023-05-26T01:13:38.265Z,98440.00
2023-05-26T01:13:48.378Z,98440.00
2023-05-26T01:13:58.383Z,98440.00
2023-05-26T01:14:08.456Z,98442.00
2023-05-26T01:14:18.458Z,98442.00
2023-05-26T01:14:28.603Z,98442.00
2023-05-26T01:14:38.610Z,98442.00
2023-05-26T01:14:48.616Z,98444.00
2023-05-26T01:14:58.622Z,98442.00
2023-05-26T01:15:08.632Z,98440.00
2023-05-26T01:15:18.645Z,98440.00
2023-05-26T01:15:28.659Z,98442.00
2023-05-26T01:15:38.667Z,98442.00
2023-05-26T01:15:48.798Z,98440.00
2023-05-26T01:15:58.796Z,98442.00
2023-05-26T01:16:09.046Z,98442.00
2023-05-26T01:16:19.082Z,98442.00
2023-05-26T01:16:29.176Z,98440.00
2023-05-26T01:16:39.239Z,98442.00
2023-05-26T01:16:49.275Z,98440.00
2023-05-26T01:16:59.294Z,98442.00
2023-05-26T01:17:09.325Z,98440.00
2023-05-26T01:17:19.325Z,98440.00
2023-05-26T01:17:29.381Z,98442.00
2023-05-26T01:17:39.366Z,98440.00
2023-05-26T01:17:49.391Z,98440.00
2023-05-26T01:17:59.460Z,98440.00
2023-05-26T01:18:09.516Z,98440.00
2023-05-26T01:18:19.521Z,98442.00
2023-05-26T01:18:29.550Z,98440.00
2023-05-26T01:18:39.559Z,98442.00
2023-05-26T01:18:49.678Z,98440.00
2023-05-26T01:18:59.941Z,98440.00
2023-05-26T01:19:09.944Z,98440.00
2023-05-26T01:19:19.948Z,98440.00
2023-05-26T01:19:29.950Z,98442.00
2023-05-26T01:19:39.976Z,98442.00
2023-05-26T01:19:49.980Z,98442.00
2023-05-26T01:20:00.018Z,98442.00
2023-05-26T01:20:10.055Z,98442.00
2023-05-26T01:20:20.115Z,98442.00
2023-05-26T01:20:30.158Z,98442.00
2023-05-26T01:20:40.201Z,98444.00
2023-05-26T01:20:50.426Z,98444.00
2023-05-26T01:21:00.194Z,98440.00
2023-05-26T01:21:10.325Z,98442.00
2023-05-26T01:21:20.341Z,98440.00
2023-05-26T01:21:30.346Z,98442.00
2023-05-26T01:21:40.347Z,98442.00
2023-05-26T01:21:50.601Z,98442.00
2023-05-26T01:22:00.610Z,98442.00
2023-05-26T01:22:10.604Z,98439.00
2023-05-26T01:22:20.623Z,98439.00
2023-05-26T01:22:30.738Z,98437.00
2023-05-26T01:22:40.750Z,98439.00
2023-05-26T01:22:50.768Z,98440.00
2023-05-26T01:23:00.796Z,98440.00
2023-05-26T01:23:10.806Z,98440.00
2023-05-26T01:23:20.815Z,98442.00
2023-05-26T01:23:31.074Z,98439.00
2023-05-26T01:23:41.077Z,98444.00
2023-05-26T01:23:51.205Z,98442.00
2023-05-26T01:24:01.464Z,98440.00
2023-05-26T01:24:11.475Z,98442.00
2023-05-26T01:24:21.475Z,98442.00
2023-05-26T01:24:31.482Z,98442.00
2023-05-26T01:24:41.521Z,98442.00
2023-05-26T01:24:51.528Z,98442.00
2023-05-26T01:25:01.616Z,98440.00
2023-05-26T01:25:11.621Z,98440.00
2023-05-26T01:25:21.645Z,98444.00
2023-05-26T01:25:31.622Z,98442.00
2023-05-26T01:25:41.628Z,98440.00
2023-05-26T01:25:51.624Z,98440.00
2023-05-26T01:26:01.629Z,98442.00
2023-05-26T01:26:11.639Z,98440.00
2023-05-26T01:26:21.639Z,98442.00
2023-05-26T01:26:31.643Z,98442.00
2023-05-26T01:26:41.646Z,98440.00
2023-05-26T01:26:51.657Z,98442.00
2023-05-26T01:27:01.655Z,98440.00
2023-05-26T01:27:11.655Z,98440.00
2023-05-26T01:27:21.670Z,98440.00
2023-05-26T01:27:31.787Z,98442.00
2023-05-26T01:27:41.784Z,98442.00
2023-05-26T01:27:51.907Z,98442.00
2023-05-26T01:28:02.037Z,98442.00
2023-05-26T01:28:12.158Z,98440.00
2023-05-26T01:28:22.183Z,98442.00
2023-05-26T01:28:32.441Z,98442.00
2023-05-26T01:28:42.449Z,98442.00
2023-05-26T01:28:52.460Z,98444.00
2023-05-26T01:29:02.475Z,98442.00
2023-05-26T01:29:12.481Z,98444.00
2023-05-26T01:29:22.508Z,98444.00
2023-05-26T01:29:32.500Z,98444.00
2023-05-26T01:29:42.517Z,98442.00
2023-05-26T01:29:52.528Z,98442.00
2023-05-26T01:30:02.514Z,98442.00
2023-05-26T01:30:12.892Z,98444.00
2023-05-26T01:30:22.898Z,98446.00
2023-05-26T01:30:32.903Z,98448.00
2023-05-26T01:30:42.917Z,98444.00
2023-05-26T01:30:52.920Z,98444.00
2023-05-26T01:31:02.938Z,98448.00
2023-05-26T01:31:12.977Z,98444.00
2023-05-26T01:31:22.984Z,98450.00
2023-05-26T01:31:32.994Z,98450.00
2023-05-26T01:31:43.038Z,98450.00
2023-05-26T01:31:53.414Z,98450.00
2023-05-26T01:32:03.433Z,98452.00
2023-05-26T01:32:13.434Z,98448.00
2023-05-26T01:32:23.467Z,98452.00
2023-05-26T01:32:33.492Z,98448.00
2023-05-26T01:32:43.604Z,98450.00
2023-05-26T01:32:53.568Z,98450.00
2023-05-26T01:33:03.674Z,98450.00
2023-05-26T01:33:13.763Z,98452.00
2023-05-26T01:33:23.795Z,98454.00
2023-05-26T01:33:34.029Z,98452.00
2023-05-26T01:33:44.116Z,98454.00
2023-05-26T01:33:54.227Z,98452.00
2023-05-26T01:34:04.585Z,98454.00
2023-05-26T01:34:14.528Z,98452.00
2023-05-26T01:34:24.530Z,98454.00
2023-05-26T01:34:34.794Z,98454.00
2023-05-26T01:34:44.796Z,98456.00
2023-05-26T01:34:54.803Z,98454.00
2023-05-26T01:35:04.804Z,98452.00
2023-05-26T01:35:14.843Z,98452.00
2023-05-26T01:35:24.844Z,98454.00
2023-05-26T01:35:34.960Z,98452.00
2023-05-26T01:35:45.146Z,98454.00
2023-05-26T01:35:55.023Z,98454.00
2023-05-26T01:36:05.032Z,98456.00
2023-05-26T01:36:15.307Z,98456.00
2023-05-26T01:36:25.313Z,98454.00
2023-05-26T01:36:35.434Z,98454.00
2023-05-26T01:36:45.686Z,98452.00
2023-05-26T01:36:55.810Z,98452.00
2023-05-26T01:37:05.827Z,98454.00
2023-05-26T01:37:16.080Z,98454.00
2023-05-26T01:37:26.118Z,98454.00
2023-05-26T01:37:36.256Z,98454.00
2023-05-26T01:37:46.507Z,98454.00
2023-05-26T01:37:56.632Z,98454.00
2023-05-26T01:38:06.643Z,98454.00
2023-05-26T01:38:16.923Z,98456.00
2023-05-26T01:38:26.927Z,98454.00
2023-05-26T01:38:37.043Z,98454.00
2023-05-26T01:38:47.306Z,98454.00
2023-05-26T01:38:57.433Z,98456.00
2023-05-26T01:39:07.442Z,98454.00
2023-05-26T01:39:17.701Z,98456.00
2023-05-26T01:39:27.725Z,98456.00
2023-05-26T01:39:37.740Z,98454.00
2023-05-26T01:39:47.779Z,98454.00
2023-05-26T01:39:57.766Z,98452.00
2023-05-26T01:40:07.820Z,98454.00
2023-05-26T01:40:17.820Z,98454.00
2023-05-26T01:40:27.825Z,98452.00
2023-05-26T01:40:37.962Z,98452.00
2023-05-26T01:40:47.967Z,98454.00
2023-05-26T01:40:58.225Z,98454.00
2023-05-26T01:41:08.221Z,98448.00
2023-05-26T01:41:18.243Z,98448.00
2023-05-26T01:41:28.238Z,98450.00
2023-05-26T01:41:38.260Z,98450.00
2023-05-26T01:41:48.272Z,98450.00
2023-05-26T01:41:58.273Z,98450.00
2023-05-26T01:42:14.017Z,98450.00
2023-05-26T01:42:29.747Z,98448.00
2023-05-26T01:42:31.756Z,98450.00
2023-05-26T01:42:38.629Z,98452.00
2023-05-26T01:42:48.627Z,98452.00
2023-05-26T01:42:58.766Z,98450.00
2023-05-26T01:43:09.030Z,98452.00
2023-05-26T01:43:19.025Z,98450.00
2023-05-26T01:43:29.026Z,98450.00
2023-05-26T01:43:39.030Z,98448.00
2023-05-26T01:43:49.037Z,98448.00
2023-05-26T01:43:59.164Z,98452.00
2023-05-26T01:44:09.161Z,98446.00
2023-05-26T01:44:19.182Z,98450.00
2023-05-26T01:44:29.190Z,98452.00
2023-05-26T01:44:39.293Z,98450.00
2023-05-26T01:44:49.437Z,98450.00
2023-05-26T01:44:59.552Z,98450.00
2023-05-26T01:45:09.561Z,98452.00
2023-05-26T01:45:19.847Z,98448.00
2023-05-26T01:45:29.861Z,98450.00
2023-05-26T01:45:39.870Z,98450.00
2023-05-26T01:45:49.891Z,98450.00
2023-05-26T01:45:59.929Z,98450.00
2023-05-26T01:46:09.958Z,98452.00
2023-05-26T01:46:20.004Z,98448.00
2023-05-26T01:46:30.039Z,98450.00
2023-05-26T01:46:40.208Z,98452.00
2023-05-26T01:46:50.171Z,98452.00
2023-05-26T01:47:00.446Z,98452.00
2023-05-26T01:47:10.493Z,98452.00
2023-05-26T01:47:20.517Z,98452.00
2023-05-26T01:47:30.574Z,98452.00
2023-05-26T01:47:40.640Z,98452.00
2023-05-26T01:47:50.738Z,98452.00
2023-05-26T01:48:00.787Z,98454.00
2023-05-26T01:48:11.000Z,98452.00
2023-05-26T01:48:20.835Z,98456.00
2023-05-26T01:48:30.833Z,98452.00
2023-05-26T01:48:40.844Z,98452.00
2023-05-26T01:48:50.841Z,98452.00
2023-05-26T01:49:00.844Z,98454.00
2023-05-26T01:49:10.983Z,98452.00
2023-05-26T01:49:20.978Z,98456.00
2023-05-26T01:49:30.975Z,98454.00
2023-05-26T01:49:40.974Z,98456.00
2023-05-26T01:49:51.224Z,98452.00
2023-05-26T01:50:01.236Z,98452.00
2023-05-26T01:50:11.349Z,98454.00
2023-05-26T01:50:21.626Z,98454.00
2023-05-26T01:50:31.635Z,98454.00
2023-05-26T01:50:41.648Z,98454.00
2023-05-26T01:50:51.645Z,98454.00
2023-05-26T01:51:01.656Z,98456.00
2023-05-26T01:51:11.776Z,98454.00
2023-05-26T01:51:21.779Z,98454.00
2023-05-26T01:51:31.783Z,98456.00
2023-05-26T01:51:41.798Z,98454.00
2023-05-26T01:51:51.911Z,98456.00
2023-05-26T01:52:02.040Z,98456.00
2023-05-26T01:52:12.054Z,98460.00
2023-05-26T01:52:22.071Z,98456.00
2023-05-26T01:52:32.069Z,98456.00
2023-05-26T01:52:42.073Z,98458.00
2023-05-26T01:52:52.190Z,98458.00
2023-05-26T01:53:02.191Z,98458.00
2023-05-26T01:53:12.200Z,98460.00
2023-05-26T01:53:22.225Z,98458.00
2023-05-26T01:53:32.214Z,98458.00
2023-05-26T01:53:42.478Z,98458.00
2023-05-26T01:53:52.475Z,98458.00
2023-05-26T01:54:02.483Z,98460.00
2023-05-26T01:54:12.850Z,98460.00
2023-05-26T01:54:22.882Z,98460.00
2023-05-26T01:54:32.867Z,98458.00
2023-05-26T01:54:42.878Z,98458.00
2023-05-26T01:54:52.902Z,98458.00
2023-05-26T01:55:02.878Z,98460.00
2023-05-26T01:55:13.009Z,98462.00
2023-05-26T01:55:23.012Z,98462.00
2023-05-26T01:55:33.139Z,98460.00
2023-05-26T01:55:43.222Z,98460.00
2023-05-26T01:55:53.340Z,98460.00
2023-05-26T01:56:03.336Z,98460.00
2023-05-26T01:56:13.457Z,98460.00
2023-05-26T01:56:23.710Z,98460.00
2023-05-26T01:56:33.852Z,98460.00
2023-05-26T01:56:43.835Z,98460.00
2023-05-26T01:56:54.097Z,98466.00
2023-05-26T01:57:04.119Z,98460.00
2023-05-26T01:57:14.103Z,98462.00
2023-05-26T01:57:24.112Z,98464.00
2023-05-26T01:57:34.124Z,98462.00
2023-05-26T01:57:44.132Z,98460.00
2023-05-26T01:57:54.128Z,98464.00
2023-05-26T01:58:04.135Z,98464.00
2023-05-26T01:58:14.140Z,98464.00